Time;durP1;ratioP1;P1;durP2;ratioP2;P2;SDS_P1;SDS_P2;PMS_P1;PMS_P2;Temp;Humidity;BMP_temperature;BMP_pressure;BME280_temperature;BME280_humidity;BME280_pressure;Samples;Min_cycle;Max_cycle;Signal;HPM_P1;HPM_P2
2022/11/24 00:00:21;;;;;;;;;;;16.30;70.60;;;;;;10346647;28;20405;-69
2022/11/24 00:05:23;;;;;;;;;;;16.30;70.50;;;;;;10345858;28;19934;-69
2022/11/24 00:10:25;;;;;;;;;;;16.30;70.50;;;;;;10345782;28;19934;-69
2022/11/24 00:15:27;;;;;;;;;;;16.30;70.60;;;;;;10346597;28;19965;-70
2022/11/24 00:20:29;;;;;;;;;;;16.30;70.60;;;;;;10345926;28;19962;-69
2022/11/24 00:25:31;;;;;;;;;;;16.20;70.60;;;;;;10345838;28;19970;-69
2022/11/24 00:30:32;;;;;;;;;;;16.20;70.50;;;;;;10345540;28;19965;-69
2022/11/24 00:35:34;;;;;;;;;;;16.20;70.50;;;;;;10344990;28;19956;-68
2022/11/24 00:40:36;;;;;;;;;;;16.20;70.50;;;;;;10344485;28;20389;-68
2022/11/24 00:45:38;;;;;;;;;;;16.20;70.50;;;;;;10344253;28;19985;-69
2022/11/24 00:50:40;;;;;;;;;;;16.20;70.40;;;;;;10345059;28;19934;-68
2022/11/24 00:55:42;;;;;;;;;;;16.20;70.30;;;;;;10345077;28;19934;-70
2022/11/24 01:00:43;;;;;;;;;;;16.30;70.20;;;;;;10344792;28;19934;-68
2022/11/24 01:05:45;;;;;;;;;;;16.30;70.00;;;;;;10343628;28;19935;-68
2022/11/24 01:10:47;;;;;;;;;;;16.30;69.90;;;;;;10344678;28;19934;-70
2022/11/24 01:15:49;;;;;;;;;;;16.30;69.90;;;;;;10342056;28;20321;-68
2022/11/24 01:20:51;;;;;;;;;;;16.30;69.90;;;;;;10343405;28;20001;-68
2022/11/24 01:25:53;;;;;;;;;;;16.30;69.90;;;;;;10342539;28;19934;-68
2022/11/24 01:30:58;;;;;;;;;;;16.30;69.80;;;;;;10343617;28;19941;-69
2022/11/24 01:36:00;;;;;;;;;;;16.30;69.90;;;;;;10342955;28;19934;-67
2022/11/24 01:41:02;;;;;;;;;;;16.30;69.90;;;;;;10342853;28;19934;-69
2022/11/24 01:46:16;;;;;;;;;;;16.30;69.90;;;;;;10343023;28;19981;-69
2022/11/24 01:51:21;;;;;;;;;;;16.20;69.90;;;;;;10343437;28;19940;-69
2022/11/24 01:56:22;;;;;;;;;;;16.20;69.90;;;;;;10343236;28;19938;-69
2022/11/24 02:06:42;;;;;;;;;;;16.20;70.10;;;;;;10373491;28;19933;-67
2022/11/24 02:11:45;;;;;;;;;;;16.10;70.00;;;;;;10349138;28;19933;-66
2022/11/24 02:16:50;;;;;;;;;;;16.10;70.10;;;;;;10382974;28;19933;-67
2022/11/24 02:21:51;;;;;;;;;;;16.10;70.10;;;;;;10382872;28;19934;-68
2022/11/24 02:26:53;;;;;;;;;;;16.10;70.20;;;;;;10383183;28;19937;-67
2022/11/24 02:31:57;;;;;;;;;;;16.00;70.10;;;;;;10382820;28;19937;-68
2022/11/24 02:36:59;;;;;;;;;;;16.00;70.10;;;;;;10382763;28;19938;-68
2022/11/24 02:42:03;;;;;;;;;;;16.00;70.10;;;;;;10379896;28;19934;-68
2022/11/24 02:47:06;;;;;;;;;;;16.00;70.20;;;;;;10380404;28;19938;-68
2022/11/24 02:52:07;;;;;;;;;;;16.00;70.10;;;;;;10381885;28;19994;-68
2022/11/24 02:57:09;;;;;;;;;;;16.10;70.10;;;;;;10381313;28;19933;-68
2022/11/24 03:02:11;;;;;;;;;;;16.20;70.00;;;;;;10381354;28;20384;-68
2022/11/24 03:07:13;;;;;;;;;;;16.20;69.70;;;;;;10380941;28;19940;-68
2022/11/24 03:12:15;;;;;;;;;;;16.20;69.60;;;;;;10380999;28;20381;-67
2022/11/24 03:17:17;;;;;;;;;;;16.20;69.60;;;;;;10380910;28;19941;-67
2022/11/24 03:22:18;;;;;;;;;;;16.20;69.60;;;;;;10386905;28;19934;-66
2022/11/24 03:27:20;;;;;;;;;;;16.10;69.60;;;;;;10388736;28;19980;-67
2022/11/24 03:32:22;;;;;;;;;;;16.10;69.60;;;;;;10388086;28;19941;-68
2022/11/24 03:37:24;;;;;;;;;;;16.10;69.60;;;;;;10387170;28;19938;-67
2022/11/24 03:42:25;;;;;;;;;;;16.10;69.50;;;;;;10385731;28;19941;-66
2022/11/24 03:47:27;;;;;;;;;;;16.10;69.60;;;;;;10387144;28;20376;-68
2022/11/24 03:52:29;;;;;;;;;;;16.10;69.60;;;;;;10386764;28;20316;-67
2022/11/24 03:57:30;;;;;;;;;;;16.00;69.50;;;;;;10386807;28;20407;-67
2022/11/24 04:02:33;;;;;;;;;;;16.00;69.70;;;;;;10368439;28;20475;-67
2022/11/24 04:07:34;;;;;;;;;;;16.00;69.70;;;;;;10386674;28;19934;-67
2022/11/24 04:12:42;;;;;;;;;;;15.90;69.70;;;;;;10387232;28;19941;-67
2022/11/24 04:17:44;;;;;;;;;;;15.90;69.80;;;;;;10386249;28;19933;-67
2022/11/24 04:22:48;;;;;;;;;;;15.90;69.90;;;;;;10386823;28;19937;-67
2022/11/24 04:27:51;;;;;;;;;;;15.90;69.80;;;;;;10386733;28;19969;-67
2022/11/24 04:32:53;;;;;;;;;;;15.90;69.80;;;;;;10385946;28;19976;-67
2022/11/24 04:37:55;;;;;;;;;;;15.90;69.90;;;;;;10385724;28;19940;-67
2022/11/24 04:42:56;;;;;;;;;;;16.00;69.90;;;;;;10385525;28;19934;-67
2022/11/24 04:47:58;;;;;;;;;;;16.10;69.60;;;;;;10385298;28;19934;-68
2022/11/24 04:53:00;;;;;;;;;;;16.10;69.50;;;;;;10384873;28;19934;-67
2022/11/24 04:58:02;;;;;;;;;;;16.10;69.40;;;;;;10385578;28;19934;-67
2022/11/24 05:03:04;;;;;;;;;;;16.10;69.40;;;;;;10384807;28;20086;-68
2022/11/24 05:08:05;;;;;;;;;;;16.10;69.40;;;;;;10385044;28;19988;-68
2022/11/24 05:13:11;;;;;;;;;;;16.10;69.40;;;;;;10384632;28;20021;-68
2022/11/24 05:18:15;;;;;;;;;;;16.10;69.40;;;;;;10366923;28;19933;-68
2022/11/24 05:23:16;;;;;;;;;;;16.00;69.30;;;;;;10384239;28;20016;-68
2022/11/24 05:28:18;;;;;;;;;;;16.00;69.30;;;;;;10384558;28;20016;-68
2022/11/24 05:33:21;;;;;;;;;;;16.00;69.40;;;;;;10383757;28;19945;-67
2022/11/24 05:38:23;;;;;;;;;;;16.00;69.50;;;;;;10383575;28;20392;-69
2022/11/24 05:43:25;;;;;;;;;;;15.90;69.50;;;;;;10383846;28;20395;-68
2022/11/24 05:48:27;;;;;;;;;;;16.00;69.70;;;;;;10385254;28;20037;-67
2022/11/24 05:53:28;;;;;;;;;;;16.10;69.60;;;;;;10381321;28;19988;-68
2022/11/24 05:58:30;;;;;;;;;;;16.40;69.30;;;;;;10379966;28;20115;-67
2022/11/24 06:03:32;;;;;;;;;;;16.60;68.70;;;;;;10382447;28;20024;-66
2022/11/24 06:08:34;;;;;;;;;;;16.60;68.50;;;;;;10381750;28;20408;-67
2022/11/24 06:13:35;;;;;;;;;;;16.70;68.40;;;;;;10380662;28;20020;-67
2022/11/24 06:18:37;;;;;;;;;;;16.70;68.30;;;;;;10382022;28;19940;-67
2022/11/24 06:23:39;;;;;;;;;;;16.70;68.40;;;;;;10381443;28;20048;-67
2022/11/24 06:28:41;;;;;;;;;;;16.60;68.60;;;;;;10382849;28;20049;-67
2022/11/24 06:33:43;;;;;;;;;;;16.60;68.70;;;;;;10365027;28;19941;-67
2022/11/24 06:38:45;;;;;;;;;;;16.60;68.90;;;;;;10381716;28;19959;-67
2022/11/24 06:43:46;;;;;;;;;;;16.50;69.10;;;;;;10381835;28;20409;-68
2022/11/24 06:48:51;;;;;;;;;;;16.50;69.30;;;;;;10382736;28;20024;-67
2022/11/24 06:53:53;;;;;;;;;;;16.40;69.50;;;;;;10384288;28;19937;-67
2022/11/24 06:58:55;;;;;;;;;;;16.40;69.60;;;;;;10387892;28;19977;-67
2022/11/24 07:03:57;;;;;;;;;;;16.40;69.60;;;;;;10370362;28;19941;-68
2022/11/24 07:08:59;;;;;;;;;;;16.40;70.50;;;;;;10388364;28;19934;-69
2022/11/24 07:14:01;;;;;;;;;;;16.30;70.80;;;;;;10387526;28;20036;-67
2022/11/24 07:19:02;;;;;;;;;;;16.40;71.20;;;;;;10370377;28;19934;-69
2022/11/24 07:24:04;;;;;;;;;;;16.40;71.50;;;;;;10387169;28;19940;-69
2022/11/24 07:29:06;;;;;;;;;;;16.40;71.30;;;;;;10387770;28;20417;-69
2022/11/24 07:34:08;;;;;;;;;;;16.30;71.20;;;;;;10370587;28;20037;-69
2022/11/24 07:39:09;;;;;;;;;;;16.30;71.00;;;;;;10387745;28;20103;-70
2022/11/24 07:44:11;;;;;;;;;;;16.20;71.00;;;;;;10388115;28;20368;-70
2022/11/24 07:49:13;;;;;;;;;;;16.20;71.10;;;;;;10370099;28;20778;-70
2022/11/24 07:54:15;;;;;;;;;;;16.20;71.00;;;;;;10387374;28;20518;-69
2022/11/24 07:59:16;;;;;;;;;;;16.10;70.90;;;;;;10370114;28;20031;-69
2022/11/24 08:04:18;;;;;;;;;;;16.10;71.00;;;;;;10385755;28;19972;-68
2022/11/24 08:09:20;;;;;;;;;;;16.10;71.10;;;;;;10385344;28;20331;-70
2022/11/24 08:14:22;;;;;;;;;;;16.00;71.20;;;;;;10387262;28;20420;-69
2022/11/24 08:19:23;;;;;;;;;;;16.00;71.20;;;;;;10387422;28;20033;-69
2022/11/24 08:24:26;;;;;;;;;;;16.00;71.30;;;;;;10387059;28;19972;-70
2022/11/24 08:29:28;;;;;;;;;;;16.00;71.40;;;;;;10386385;28;20400;-69
2022/11/24 08:34:30;;;;;;;;;;;16.00;71.30;;;;;;10368637;28;19940;-69
2022/11/24 08:39:32;;;;;;;;;;;15.90;71.30;;;;;;10384538;28;20038;-69
2022/11/24 08:44:34;;;;;;;;;;;15.90;71.30;;;;;;10385453;28;20431;-69
2022/11/24 08:49:36;;;;;;;;;;;15.90;71.30;;;;;;10385370;28;19992;-68
2022/11/24 08:54:39;;;;;;;;;;;15.90;71.30;;;;;;10385635;28;19938;-70
2022/11/24 08:59:41;;;;;;;;;;;15.80;71.20;;;;;;10385605;28;19973;-70
2022/11/24 09:04:44;;;;;;;;;;;15.80;71.30;;;;;;10384799;28;19933;-69
2022/11/24 09:09:46;;;;;;;;;;;15.90;71.30;;;;;;10384954;28;19977;-69
2022/11/24 09:14:47;;;;;;;;;;;16.00;71.20;;;;;;10384879;28;19973;-69
2022/11/24 09:19:49;;;;;;;;;;;16.00;70.90;;;;;;10383183;28;20157;-69
2022/11/24 09:24:51;;;;;;;;;;;16.10;70.90;;;;;;10350754;28;20024;-69
2022/11/24 09:29:53;;;;;;;;;;;16.10;70.90;;;;;;10384396;28;20478;-69
2022/11/24 09:34:54;;;;;;;;;;;16.10;70.90;;;;;;10383774;28;20353;-69
2022/11/24 09:39:56;;;;;;;;;;;16.10;70.80;;;;;;10384452;28;20020;-70
2022/11/24 09:45:08;;;;;;;;;;;16.10;70.90;;;;;;10383573;28;19941;-69
2022/11/24 09:50:16;;;;;;;;;;;16.10;70.90;;;;;;10383842;28;20048;-69
2022/11/24 09:55:24;;;;;;;;;;;16.10;70.90;;;;;;10383412;28;19940;-70
2022/11/24 10:00:26;;;;;;;;;;;16.10;71.00;;;;;;10384291;28;20025;-70
2022/11/24 10:05:29;;;;;;;;;;;16.00;71.00;;;;;;10383415;28;20021;-70
2022/11/24 10:10:42;;;;;;;;;;;16.00;71.00;;;;;;10382492;28;20032;-70
2022/11/24 10:15:48;;;;;;;;;;;16.00;70.90;;;;;;10365825;28;19980;-69
2022/11/24 10:21:08;;;;;;;;;;;16.00;70.90;;;;;;10383016;28;19933;-70
2022/11/24 10:26:27;;;;;;;;;;;16.00;71.00;;;;;;10383225;28;19961;-70
2022/11/24 10:31:37;;;;;;;;;;;16.00;70.90;;;;;;10382089;28;19942;-69
2022/11/24 10:36:47;;;;;;;;;;;16.00;71.10;;;;;;10381970;28;20374;-69
2022/11/24 10:41:58;;;;;;;;;;;16.00;71.00;;;;;;10348386;28;19934;-69
2022/11/24 10:46:59;;;;;;;;;;;16.00;71.10;;;;;;10382044;28;19980;-70
2022/11/24 10:52:05;;;;;;;;;;;16.00;71.10;;;;;;10382179;28;20040;-69
2022/11/24 10:57:07;;;;;;;;;;;16.00;71.10;;;;;;10381315;28;20001;-69
2022/11/24 11:02:29;;;;;;;;;;;15.90;71.20;;;;;;10381148;28;20041;-71
2022/11/24 11:07:31;;;;;;;;;;;15.90;71.30;;;;;;10381150;28;19934;-70
2022/11/24 11:12:32;;;;;;;;;;;15.90;71.20;;;;;;10382219;28;19941;-69
2022/11/24 11:17:45;;;;;;;;;;;15.90;71.20;;;;;;10381475;28;19941;-70
2022/11/24 11:22:48;;;;;;;;;;;15.90;71.30;;;;;;10363471;28;20027;-70
2022/11/24 11:27:50;;;;;;;;;;;15.90;71.40;;;;;;10381479;28;20419;-71
2022/11/24 11:32:53;;;;;;;;;;;15.90;71.30;;;;;;10380024;28;20017;-70
2022/11/24 11:38:15;;;;;;;;;;;15.90;71.60;;;;;;10381200;28;19964;-71
2022/11/24 11:43:16;;;;;;;;;;;15.90;71.40;;;;;;10386891;28;19934;-70
2022/11/24 11:48:45;;;;;;;;;;;15.90;71.40;;;;;;10388440;28;19981;-70
2022/11/24 11:54:02;;;;;;;;;;;15.90;71.70;;;;;;10383276;28;19941;-69
2022/11/24 11:59:10;;;;;;;;;;;15.90;71.60;;;;;;10386950;28;20345;-69
2022/11/24 12:04:14;;;;;;;;;;;15.90;71.60;;;;;;10386371;28;20028;-70
2022/11/24 12:09:23;;;;;;;;;;;15.90;71.70;;;;;;10369631;28;20414;-70
2022/11/24 12:14:30;;;;;;;;;;;15.90;71.70;;;;;;10387284;28;20036;-69
2022/11/24 12:19:58;;;;;;;;;;;15.90;71.70;;;;;;10369518;28;20033;-69
2022/11/24 12:25:19;;;;;;;;;;;15.90;71.80;;;;;;10353198;28;19980;-69
2022/11/24 12:30:21;;;;;;;;;;;15.90;71.80;;;;;;10369141;28;19968;-70
2022/11/24 12:35:32;;;;;;;;;;;15.90;71.90;;;;;;10368543;28;20036;-69
2022/11/24 12:40:39;;;;;;;;;;;15.90;71.90;;;;;;10385230;28;19961;-69
2022/11/24 12:45:56;;;;;;;;;;;15.90;71.90;;;;;;10386191;28;20298;-69
2022/11/24 12:50:59;;;;;;;;;;;15.90;71.90;;;;;;10385084;28;20032;-70
2022/11/24 12:56:05;;;;;;;;;;;16.00;72.00;;;;;;10385620;28;20464;-70
2022/11/24 13:01:22;;;;;;;;;;;16.00;72.00;;;;;;10367131;28;20028;-70
2022/11/24 13:06:42;;;;;;;;;;;16.00;72.00;;;;;;10384712;28;20016;-70
2022/11/24 13:12:03;;;;;;;;;;;16.00;72.10;;;;;;10369107;28;19933;-70
2022/11/24 13:17:24;;;;;;;;;;;16.00;72.10;;;;;;10367868;28;19942;-70
2022/11/24 13:22:44;;;;;;;;;;;16.00;72.10;;;;;;10384040;28;19942;-70
2022/11/24 13:27:47;;;;;;;;;;;16.00;72.00;;;;;;10384639;28;20024;-70
2022/11/24 13:32:58;;;;;;;;;;;16.00;72.00;;;;;;10365624;28;20028;-70
2022/11/24 13:37:59;;;;;;;;;;;15.90;72.10;;;;;;10383420;28;20407;-69
2022/11/24 13:43:01;;;;;;;;;;;15.90;72.00;;;;;;10365829;28;19940;-70
2022/11/24 13:48:18;;;;;;;;;;;15.90;72.00;;;;;;10383660;28;20005;-70
2022/11/24 13:53:27;;;;;;;;;;;15.90;72.10;;;;;;10365652;28;19940;-69
2022/11/24 13:58:32;;;;;;;;;;;15.90;72.10;;;;;;10383727;28;20025;-70
2022/11/24 14:03:34;;;;;;;;;;;15.90;72.10;;;;;;10364504;28;19980;-69
2022/11/24 14:08:37;;;;;;;;;;;15.80;72.10;;;;;;10383089;28;19979;-70
2022/11/24 14:13:38;;;;;;;;;;;15.80;72.20;;;;;;10382504;28;20365;-69
2022/11/24 14:18:41;;;;;;;;;;;15.80;72.20;;;;;;10381291;28;20040;-70
2022/11/24 14:23:44;;;;;;;;;;;15.80;72.20;;;;;;10364736;28;19937;-70
2022/11/24 14:28:46;;;;;;;;;;;15.80;72.10;;;;;;10382674;28;19934;-70
2022/11/24 14:33:48;;;;;;;;;;;15.80;72.10;;;;;;10382691;28;19941;-70
2022/11/24 14:38:50;;;;;;;;;;;15.80;72.10;;;;;;10382584;28;20054;-70
2022/11/24 14:44:10;;;;;;;;;;;15.70;72.00;;;;;;10381390;28;19984;-69
2022/11/24 14:49:19;;;;;;;;;;;15.70;72.00;;;;;;10364199;28;20016;-69
2022/11/24 14:54:22;;;;;;;;;;;15.70;72.00;;;;;;10363882;28;20000;-69
2022/11/24 14:59:24;;;;;;;;;;;15.70;72.00;;;;;;10381828;28;20028;-69
2022/11/24 15:04:27;;;;;;;;;;;15.70;72.00;;;;;;10381285;28;19938;-68
2022/11/24 15:09:51;;;;;;;;;;;15.70;72.00;;;;;;10381381;28;20010;-69
2022/11/24 15:14:55;;;;;;;;;;;15.70;72.00;;;;;;10384027;28;20020;-69
2022/11/24 15:19:59;;;;;;;;;;;15.80;71.80;;;;;;10388485;28;19933;-70
2022/11/24 15:25:01;;;;;;;;;;;15.90;71.70;;;;;;10388531;28;19973;-69
2022/11/24 15:30:03;;;;;;;;;;;15.90;71.70;;;;;;10388130;28;20439;-69
2022/11/24 15:35:09;;;;;;;;;;;15.90;71.60;;;;;;10388409;28;19993;-70
2022/11/24 15:40:10;;;;;;;;;;;15.90;71.50;;;;;;10369729;28;20081;-69
2022/11/24 15:45:12;;;;;;;;;;;15.90;71.50;;;;;;10387902;28;19940;-69
2022/11/24 15:50:14;;;;;;;;;;;15.80;71.50;;;;;;10387438;28;19968;-69
2022/11/24 15:55:17;;;;;;;;;;;15.80;71.50;;;;;;10386690;28;20008;-69
2022/11/24 16:00:20;;;;;;;;;;;15.80;71.50;;;;;;10386511;28;19933;-70
2022/11/24 16:05:22;;;;;;;;;;;15.80;71.50;;;;;;10369212;28;19934;-69
2022/11/24 16:10:28;;;;;;;;;;;15.80;71.40;;;;;;10386366;28;19976;-69
2022/11/24 16:15:30;;;;;;;;;;;15.80;71.60;;;;;;10386113;28;20036;-70
2022/11/24 16:20:34;;;;;;;;;;;15.90;71.60;;;;;;10386199;28;20480;-68
2022/11/24 16:25:36;;;;;;;;;;;16.20;71.40;;;;;;10385106;28;20036;-69
2022/11/24 16:30:37;;;;;;;;;;;16.50;70.70;;;;;;10386052;28;20028;-70
2022/11/24 16:35:39;;;;;;;;;;;16.80;70.00;;;;;;10385984;28;20482;-69
2022/11/24 16:40:41;;;;;;;;;;;17.10;69.50;;;;;;10385890;28;20061;-69
2022/11/24 16:45:43;;;;;;;;;;;17.40;68.90;;;;;;10383226;28;19974;-69
2022/11/24 16:50:46;;;;;;;;;;;17.60;68.40;;;;;;10384153;28;20028;-70
2022/11/24 16:55:55;;;;;;;;;;;17.70;67.90;;;;;;10385421;28;20029;-67
2022/11/24 17:01:07;;;;;;;;;;;17.80;67.90;;;;;;10384665;28;19934;-68
2022/11/24 17:06:10;;;;;;;;;;;17.90;68.30;;;;;;10383354;28;19997;-68
2022/11/24 17:11:13;;;;;;;;;;;17.90;70.60;;;;;;10384149;28;19933;-66
2022/11/24 17:16:16;;;;;;;;;;;17.90;72.80;;;;;;10365372;28;19933;-65
2022/11/24 17:21:22;;;;;;;;;;;18.10;75.50;;;;;;10383235;28;19960;-67
2022/11/24 17:26:24;;;;;;;;;;;18.40;76.20;;;;;;10383151;28;20450;-67
2022/11/24 17:31:27;;;;;;;;;;;18.60;74.70;;;;;;10365161;28;20476;-68
2022/11/24 17:36:30;;;;;;;;;;;18.60;74.40;;;;;;10382678;28;20423;-68
2022/11/24 17:41:32;;;;;;;;;;;18.50;74.10;;;;;;10382572;28;20296;-68
2022/11/24 17:46:34;;;;;;;;;;;18.40;73.30;;;;;;10382409;28;19934;-68
2022/11/24 17:51:36;;;;;;;;;;;18.40;73.00;;;;;;10381774;28;20069;-71
2022/11/24 17:56:39;;;;;;;;;;;18.30;72.80;;;;;;10382112;28;20029;-68
2022/11/24 18:01:41;;;;;;;;;;;18.30;73.00;;;;;;10383230;28;19934;-67
2022/11/24 18:06:43;;;;;;;;;;;18.30;72.60;;;;;;10382038;28;19941;-68
2022/11/24 18:11:46;;;;;;;;;;;18.20;72.40;;;;;;10382733;28;19976;-68
2022/11/24 18:16:48;;;;;;;;;;;18.20;72.60;;;;;;10382403;28;19941;-68
2022/11/24 18:21:51;;;;;;;;;;;18.20;72.70;;;;;;10364780;28;19974;-67
2022/11/24 18:26:52;;;;;;;;;;;18.30;72.60;;;;;;10381858;28;20013;-66
2022/11/24 18:31:54;;;;;;;;;;;18.30;72.50;;;;;;10381282;28;20460;-67
2022/11/24 18:36:56;;;;;;;;;;;18.30;72.40;;;;;;10379783;28;19965;-68
2022/11/24 18:41:58;;;;;;;;;;;18.20;72.50;;;;;;10379770;28;20419;-68
2022/11/24 18:47:00;;;;;;;;;;;18.20;72.40;;;;;;10346833;28;19985;-68
2022/11/24 18:52:01;;;;;;;;;;;18.30;72.30;;;;;;10374834;28;20032;-69
2022/11/24 18:57:03;;;;;;;;;;;18.30;72.20;;;;;;10394873;28;19934;-71
2022/11/24 19:02:05;;;;;;;;;;;18.20;72.20;;;;;;10393554;28;20061;-70
2022/11/24 19:07:07;;;;;;;;;;;18.10;72.10;;;;;;10393831;28;19934;-68
2022/11/24 19:12:09;;;;;;;;;;;18.10;72.10;;;;;;10393379;28;19934;-69
2022/11/24 19:17:11;;;;;;;;;;;18.20;72.00;;;;;;10376028;28;19938;-69
2022/11/24 19:22:14;;;;;;;;;;;18.30;71.90;;;;;;10393518;28;19934;-69
2022/11/24 19:27:17;;;;;;;;;;;18.20;71.70;;;;;;10392958;28;20020;-70
2022/11/24 19:32:19;;;;;;;;;;;18.20;71.70;;;;;;10393197;28;20364;-69
2022/11/24 19:37:22;;;;;;;;;;;18.10;71.80;;;;;;10393723;28;19933;-68
2022/11/24 19:42:23;;;;;;;;;;;18.10;72.00;;;;;;10392883;28;19949;-69
2022/11/24 19:47:26;;;;;;;;;;;18.20;72.10;;;;;;10376000;28;19933;-69
2022/11/24 19:52:28;;;;;;;;;;;18.30;72.10;;;;;;10392785;28;19933;-67
2022/11/24 19:57:30;;;;;;;;;;;18.30;71.90;;;;;;10391102;28;20515;-69
2022/11/24 20:02:31;;;;;;;;;;;18.30;71.70;;;;;;10386090;28;19934;-69
2022/11/24 20:07:33;;;;;;;;;;;18.20;71.80;;;;;;10385808;28;20179;-69
2022/11/24 20:12:35;;;;;;;;;;;18.20;71.90;;;;;;10384050;28;19941;-70
2022/11/24 20:17:37;;;;;;;;;;;18.10;71.90;;;;;;10385977;28;20052;-69
2022/11/24 20:22:38;;;;;;;;;;;18.00;72.10;;;;;;10385299;28;20388;-68
2022/11/24 20:27:40;;;;;;;;;;;18.00;72.20;;;;;;10384992;28;20473;-69
2022/11/24 20:32:42;;;;;;;;;;;17.90;72.40;;;;;;10385112;28;20020;-69
2022/11/24 20:37:44;;;;;;;;;;;17.80;72.60;;;;;;10383141;28;20470;-69
2022/11/24 20:42:46;;;;;;;;;;;17.70;72.70;;;;;;10384940;28;19940;-67
2022/11/24 20:47:50;;;;;;;;;;;17.70;72.80;;;;;;10384392;28;20083;-70
2022/11/24 20:52:52;;;;;;;;;;;17.60;72.90;;;;;;10385060;28;19930;-69
2022/11/24 20:57:53;;;;;;;;;;;17.60;73.10;;;;;;10383830;28;20017;-70
2022/11/24 21:02:57;;;;;;;;;;;17.50;73.20;;;;;;10364591;28;20033;-68
2022/11/24 21:07:58;;;;;;;;;;;17.50;73.10;;;;;;10384060;28;20706;-69
2022/11/24 21:13:02;;;;;;;;;;;17.40;73.00;;;;;;10384265;28;25824;-69
2022/11/24 21:18:04;;;;;;;;;;;17.30;72.90;;;;;;10384161;28;20433;-70
2022/11/24 21:23:06;;;;;;;;;;;17.30;73.00;;;;;;10384404;28;20378;-69
2022/11/24 21:28:08;;;;;;;;;;;17.20;72.90;;;;;;10382658;28;19980;-69
2022/11/24 21:33:10;;;;;;;;;;;17.20;72.90;;;;;;10383545;28;19933;-68
2022/11/24 21:38:12;;;;;;;;;;;17.10;73.00;;;;;;10366033;28;20044;-67
2022/11/24 21:43:14;;;;;;;;;;;17.10;73.00;;;;;;10365393;28;20416;-69
2022/11/24 21:48:15;;;;;;;;;;;17.00;72.80;;;;;;10383699;28;20033;-69
2022/11/24 21:53:17;;;;;;;;;;;17.00;72.80;;;;;;10364172;28;20036;-68
2022/11/24 21:58:19;;;;;;;;;;;16.90;72.80;;;;;;10382680;28;20315;-68
2022/11/24 22:03:21;;;;;;;;;;;16.90;72.90;;;;;;10381033;28;19968;-69
2022/11/24 22:08:23;;;;;;;;;;;16.80;72.90;;;;;;10382042;28;20421;-69
2022/11/24 22:13:25;;;;;;;;;;;16.80;72.90;;;;;;10382658;28;19976;-70
2022/11/24 22:18:29;;;;;;;;;;;16.80;72.90;;;;;;10382671;28;20457;-69
2022/11/24 22:23:31;;;;;;;;;;;16.80;72.80;;;;;;10381061;28;19940;-69
2022/11/24 22:28:34;;;;;;;;;;;16.80;72.90;;;;;;10381974;28;20029;-69
2022/11/24 22:33:36;;;;;;;;;;;16.80;72.80;;;;;;10382141;28;19933;-68
2022/11/24 22:38:37;;;;;;;;;;;16.80;72.80;;;;;;10381684;28;20024;-68
2022/11/24 22:43:39;;;;;;;;;;;16.80;72.70;;;;;;10381772;28;20369;-68
2022/11/24 22:48:42;;;;;;;;;;;16.70;72.70;;;;;;10381205;28;20404;-68
2022/11/24 22:53:48;;;;;;;;;;;16.70;72.60;;;;;;10364166;28;19937;-68
2022/11/24 22:58:50;;;;;;;;;;;16.70;72.60;;;;;;10381861;28;20003;-68
2022/11/24 23:03:53;;;;;;;;;;;16.70;72.60;;;;;;10380407;28;20024;-69
2022/11/24 23:08:55;;;;;;;;;;;16.70;72.60;;;;;;10380552;28;19985;-68
2022/11/24 23:14:00;;;;;;;;;;;16.70;72.60;;;;;;10380730;28;19967;-69
2022/11/24 23:19:02;;;;;;;;;;;16.60;72.50;;;;;;10381348;28;19969;-68
2022/11/24 23:24:04;;;;;;;;;;;16.60;72.40;;;;;;10362929;28;19969;-69
2022/11/24 23:29:06;;;;;;;;;;;16.60;72.40;;;;;;10379566;28;19933;-69
2022/11/24 23:34:08;;;;;;;;;;;16.60;72.50;;;;;;10380835;28;20297;-69
2022/11/24 23:39:11;;;;;;;;;;;16.60;73.40;;;;;;10386245;28;19984;-68
2022/11/24 23:44:13;;;;;;;;;;;16.60;72.40;;;;;;10386922;28;19955;-68
2022/11/24 23:49:14;;;;;;;;;;;16.50;72.30;;;;;;10369224;28;19941;-68
2022/11/24 23:54:16;;;;;;;;;;;16.50;72.30;;;;;;10387173;28;20028;-68
2022/11/24 23:59:18;;;;;;;;;;;16.50;72.30;;;;;;10386351;28;20045;-67
